Time;durP1;ratioP1;P1;durP2;ratioP2;P2;SDS_P1;SDS_P2;PMS_P1;PMS_P2;Temp;Humidity;BMP_temperature;BMP_pressure;BME280_temperature;BME280_humidity;BME280_pressure;Samples;Min_cycle;Max_cycle;Signal;HPM_P1;HPM_P2
2023/10/26 00:01:55;;;;;;;5.50;3.28;;;10.40;99.90;;;;;;5032602;28;20100;-56
2023/10/26 00:04:20;;;;;;;9.75;3.90;;;10.40;99.90;;;;;;5032877;28;20093;-53
2023/10/26 00:06:46;;;;;;;6.88;3.75;;;10.40;99.90;;;;;;5032831;28;20076;-52
2023/10/26 00:09:12;;;;;;;6.32;3.58;;;10.40;99.90;;;;;;5026519;28;20373;-46
2023/10/26 00:11:37;;;;;;;7.72;3.90;;;10.40;99.90;;;;;;5032660;28;20033;-54
2023/10/26 00:14:03;;;;;;;6.55;3.55;;;10.40;99.90;;;;;;5032475;28;20117;-55
2023/10/26 00:16:28;;;;;;;9.70;3.97;;;10.40;99.90;;;;;;5032419;28;20056;-54
2023/10/26 00:18:54;;;;;;;7.90;3.85;;;10.40;99.90;;;;;;5032462;28;20096;-54
2023/10/26 00:21:21;;;;;;;6.88;3.22;;;10.40;99.90;;;;;;5032449;28;20086;-55
2023/10/26 00:23:46;;;;;;;5.78;3.53;;;10.50;99.90;;;;;;5032046;28;20032;-53
2023/10/26 00:26:12;;;;;;;12.75;3.83;;;10.50;99.90;;;;;;5032382;28;20021;-52
2023/10/26 00:28:39;;;;;;;7.28;3.45;;;10.60;99.90;;;;;;5032121;28;20067;-53
2023/10/26 00:31:05;;;;;;;6.18;3.33;;;10.60;99.90;;;;;;5032471;28;20068;-51
2023/10/26 00:33:31;;;;;;;5.30;3.05;;;10.60;99.90;;;;;;5032184;28;20069;-50
2023/10/26 00:35:56;;;;;;;6.07;3.35;;;10.60;99.90;;;;;;5032302;28;20017;-49
2023/10/26 00:38:22;;;;;;;10.18;3.50;;;10.60;99.90;;;;;;5031937;28;20041;-56
2023/10/26 00:40:47;;;;;;;6.22;3.13;;;10.70;99.90;;;;;;5032358;28;20555;-53
2023/10/26 00:43:23;;;;;;;5.88;3.35;;;10.70;99.90;;;;;;5031867;28;20044;-56
2023/10/26 00:45:53;;;;;;;6.68;2.97;;;10.70;99.90;;;;;;5018826;28;20051;-52
2023/10/26 00:48:22;;;;;;;4.93;3.08;;;10.80;99.90;;;;;;5021672;28;20028;-53
2023/10/26 00:50:48;;;;;;;;;;;10.80;99.90;;;;;;5031795;28;20472;-55
2023/10/26 00:53:18;;;;;;;4.78;2.47;;;10.80;99.90;;;;;;5031829;28;19916;-50
2023/10/26 00:55:49;;;;;;;5.80;3.13;;;10.80;99.90;;;;;;5031415;28;20040;-53
2023/10/26 00:58:17;;;;;;;6.10;2.88;;;10.90;99.90;;;;;;5031381;28;20042;-54
2023/10/26 01:00:43;;;;;;;5.47;2.85;;;10.90;99.90;;;;;;5014019;28;20328;-52
2023/10/26 01:03:08;;;;;;;7.70;3.38;;;11.00;99.90;;;;;;5031794;28;20014;-50
2023/10/26 01:05:34;;;;;;;4.40;2.63;;;11.00;99.90;;;;;;5032028;28;20027;-52
2023/10/26 01:08:00;;;;;;;6.03;2.78;;;11.00;99.90;;;;;;5031032;28;20408;-49
2023/10/26 01:10:26;;;;;;;4.40;2.35;;;11.00;99.90;;;;;;5031184;28;20025;-47
2023/10/26 01:12:53;;;;;;;4.35;2.63;;;11.00;99.90;;;;;;5031279;28;20079;-53
2023/10/26 01:15:19;;;;;;;6.05;2.53;;;11.00;99.90;;;;;;5031523;28;20036;-52
2023/10/26 01:17:45;;;;;;;4.55;2.58;;;11.00;99.90;;;;;;5031032;28;20041;-49
2023/10/26 01:20:17;;;;;;;5.35;2.38;;;11.00;99.90;;;;;;5030971;28;20080;-52
2023/10/26 01:22:42;;;;;;;4.68;2.70;;;11.00;99.90;;;;;;5006184;28;20495;-47
2023/10/26 01:25:08;;;;;;;6.30;2.80;;;11.00;99.90;;;;;;5029117;28;20025;-47
2023/10/26 01:27:33;;;;;;;4.97;2.60;;;11.00;99.90;;;;;;5030263;28;20455;-46
2023/10/26 01:29:59;;;;;;;8.35;2.90;;;11.00;99.90;;;;;;5031086;28;20029;-52
2023/10/26 01:32:28;;;;;;;6.82;2.80;;;11.00;99.90;;;;;;5030875;28;20133;-53
2023/10/26 01:34:53;;;;;;;4.45;2.33;;;11.00;99.90;;;;;;5031130;28;20090;-50
2023/10/26 01:37:19;;;;;;;4.18;2.63;;;11.00;99.90;;;;;;5030793;28;20501;-55
2023/10/26 01:39:44;;;;;;;3.65;2.47;;;10.90;99.90;;;;;;5024596;28;20030;-50
2023/10/26 01:42:12;;;;;;;7.05;3.53;;;10.90;99.90;;;;;;5030730;28;20029;-51
2023/10/26 01:44:38;;;;;;;6.32;2.97;;;10.90;99.90;;;;;;5030681;28;20029;-49
2023/10/26 01:47:05;;;;;;;6.60;3.03;;;10.80;99.90;;;;;;5030494;28;20503;-51
2023/10/26 01:49:30;;;;;;;5.25;3.22;;;10.80;99.90;;;;;;5030381;28;20021;-51
2023/10/26 01:51:56;;;;;;;6.30;3.28;;;10.80;99.90;;;;;;5030003;28;20043;-51
2023/10/26 01:54:22;;;;;;;5.40;2.63;;;10.80;99.90;;;;;;5030750;28;20029;-51
2023/10/26 01:56:47;;;;;;;6.75;3.67;;;10.80;99.90;;;;;;5030284;28;20076;-46
2023/10/26 01:59:13;;;;;;;7.45;3.58;;;10.90;99.90;;;;;;5030112;28;20045;-49
2023/10/26 02:01:38;;;;;;;7.00;3.45;;;10.80;99.90;;;;;;5030420;28;20037;-47
2023/10/26 02:04:04;;;;;;;6.15;3.53;;;10.90;99.90;;;;;;5029592;28;20111;-46
2023/10/26 02:06:30;;;;;;;5.65;3.20;;;10.80;99.90;;;;;;5030424;28;20502;-50
2023/10/26 02:08:55;;;;;;;5.88;3.03;;;10.90;99.90;;;;;;5030180;28;20033;-49
2023/10/26 02:11:21;;;;;;;6.30;3.72;;;10.90;99.90;;;;;;5030087;28;20014;-51
2023/10/26 02:13:47;;;;;;;6.47;3.40;;;10.80;99.90;;;;;;5030187;28;20037;-47
2023/10/26 02:16:13;;;;;;;6.75;3.92;;;10.90;99.90;;;;;;5030071;28;20092;-48
2023/10/26 02:18:43;;;;;;;6.95;3.67;;;10.80;99.90;;;;;;5030424;28;20200;-52
2023/10/26 02:21:08;;;;;;;;;;;10.90;99.90;;;;;;5030605;28;20033;-48
2023/10/26 02:23:34;;;;;;;7.28;3.42;;;10.90;99.90;;;;;;5030450;28;19908;-49
2023/10/26 02:26:01;;;;;;;7.20;3.42;;;10.90;99.90;;;;;;5030465;28;20661;-46
2023/10/26 02:28:27;;;;;;;7.95;3.60;;;10.90;99.90;;;;;;5030098;28;20032;-50
2023/10/26 02:30:52;;;;;;;5.55;2.88;;;10.90;99.90;;;;;;5029790;28;20029;-50
2023/10/26 02:33:18;;;;;;;5.78;2.95;;;10.90;99.90;;;;;;5030000;28;20034;-50
2023/10/26 02:35:44;;;;;;;6.18;3.45;;;11.00;99.90;;;;;;5030064;28;20116;-50
2023/10/26 02:38:10;;;;;;;4.85;2.92;;;11.00;99.90;;;;;;5030020;28;20485;-46
2023/10/26 02:40:36;;;;;;;5.78;3.10;;;11.00;99.90;;;;;;5030197;28;20081;-46
2023/10/26 02:43:03;;;;;;;6.35;3.50;;;11.00;99.90;;;;;;5030024;28;20045;-53
2023/10/26 02:45:30;;;;;;;7.45;3.65;;;11.00;99.90;;;;;;5030307;28;20021;-46
2023/10/26 02:47:57;;;;;;;7.50;3.40;;;11.00;99.90;;;;;;5030167;28;20028;-51
2023/10/26 02:50:23;;;;;;;6.43;3.28;;;11.00;99.90;;;;;;5029641;28;20026;-50
2023/10/26 02:52:48;;;;;;;5.38;3.30;;;11.00;99.90;;;;;;5030201;28;20547;-53
2023/10/26 02:55:15;;;;;;;6.28;3.30;;;11.00;99.90;;;;;;5029943;28;20022;-47
2023/10/26 02:57:40;;;;;;;6.70;2.88;;;11.00;99.90;;;;;;5029875;28;20186;-52
2023/10/26 03:00:07;;;;;;;5.78;3.20;;;11.10;99.90;;;;;;5029843;28;20088;-45
2023/10/26 03:02:32;;;;;;;6.10;3.17;;;11.10;99.90;;;;;;5029831;28;20052;-51
2023/10/26 03:04:58;;;;;;;4.82;2.95;;;11.10;99.90;;;;;;5030131;28;20030;-47
2023/10/26 03:07:25;;;;;;;6.35;3.40;;;11.10;99.90;;;;;;5029498;28;20488;-49
2023/10/26 03:09:51;;;;;;;6.35;2.90;;;11.10;99.90;;;;;;5029947;28;20400;-46
2023/10/26 03:12:18;;;;;;;4.93;3.10;;;11.10;99.90;;;;;;5029740;28;20018;-50
2023/10/26 03:14:44;;;;;;;5.30;2.72;;;11.10;99.90;;;;;;5029886;28;20025;-55
2023/10/26 03:17:10;;;;;;;7.07;3.67;;;11.10;99.90;;;;;;5029573;28;20117;-49
2023/10/26 03:19:36;;;;;;;6.00;3.13;;;11.10;99.90;;;;;;5029540;28;20484;-48
2023/10/26 03:22:01;;;;;;;3.83;2.53;;;11.10;99.90;;;;;;5029932;28;20039;-53
2023/10/26 03:24:27;;;;;;;5.53;2.63;;;11.10;99.90;;;;;;5030117;28;20095;-55
2023/10/26 03:26:52;;;;;;;3.13;2.03;;;11.20;99.90;;;;;;5029374;28;20032;-48
2023/10/26 03:29:18;;;;;;;4.47;2.53;;;11.30;99.90;;;;;;5029308;28;20029;-56
2023/10/26 03:31:44;;;;;;;6.13;2.70;;;11.30;99.90;;;;;;5031945;28;20379;-50
2023/10/26 03:34:09;;;;;;;5.20;2.67;;;11.40;99.90;;;;;;5033263;28;20044;-45
2023/10/26 03:36:35;;;;;;;5.47;2.47;;;11.40;99.90;;;;;;5032821;28;20044;-48
2023/10/26 03:39:00;;;;;;;6.55;2.38;;;11.50;99.90;;;;;;5033457;28;20025;-47
2023/10/26 03:41:26;;;;;;;4.07;2.33;;;11.50;99.90;;;;;;5033046;28;20163;-51
2023/10/26 03:43:52;;;;;;;5.68;2.80;;;11.50;99.90;;;;;;5033061;28;20388;-45
2023/10/26 03:46:17;;;;;;;3.78;2.40;;;11.60;99.90;;;;;;5033139;28;20030;-57
2023/10/26 03:48:43;;;;;;;5.47;2.30;;;11.60;99.90;;;;;;5033028;28;20479;-49
2023/10/26 03:51:08;;;;;;;3.45;1.90;;;11.60;99.90;;;;;;5032314;28;20175;-45
2023/10/26 03:53:34;;;;;;;3.47;2.00;;;11.60;99.90;;;;;;5032995;28;20038;-47
2023/10/26 03:56:01;;;;;;;2.45;1.50;;;11.60;99.90;;;;;;5032826;28;20041;-46
2023/10/26 03:58:27;;;;;;;1.95;1.20;;;11.70;99.90;;;;;;5032641;28;20053;-52
2023/10/26 04:00:52;;;;;;;4.93;1.35;;;11.70;99.90;;;;;;5032446;28;20083;-48
2023/10/26 04:03:18;;;;;;;2.85;1.25;;;11.80;99.90;;;;;;5032515;28;20380;-50
2023/10/26 04:05:44;;;;;;;1.65;0.88;;;11.80;99.90;;;;;;5032196;28;20021;-46
2023/10/26 04:08:09;;;;;;;1.48;0.95;;;11.90;99.90;;;;;;5032656;28;20091;-50
2023/10/26 04:10:36;;;;;;;1.40;0.98;;;11.90;99.90;;;;;;5032357;28;20116;-46
2023/10/26 04:13:02;;;;;;;2.00;1.10;;;12.00;99.90;;;;;;5032581;28;20029;-46
2023/10/26 04:15:27;;;;;;;4.18;1.30;;;12.00;99.90;;;;;;5031447;28;20081;-45
2023/10/26 04:17:53;;;;;;;3.67;1.02;;;12.00;99.90;;;;;;5032090;28;20745;-45
2023/10/26 04:20:20;;;;;;;3.47;0.90;;;12.00;99.90;;;;;;5032423;28;20440;-48
2023/10/26 04:22:46;;;;;;;1.70;0.90;;;12.00;99.90;;;;;;5030092;28;20037;-46
2023/10/26 04:25:12;;;;;;;2.15;0.98;;;12.00;99.90;;;;;;5029072;28;20026;-46
2023/10/26 04:27:38;;;;;;;3.55;0.93;;;12.00;99.90;;;;;;5028209;28;20032;-46
2023/10/26 04:30:05;;;;;;;1.33;0.80;;;12.00;99.90;;;;;;5030926;28;20025;-47
2023/10/26 04:32:30;;;;;;;4.30;1.05;;;11.90;99.90;;;;;;5015009;28;20510;-46
2023/10/26 04:34:56;;;;;;;4.43;0.73;;;11.90;99.90;;;;;;5038589;28;20113;-45
2023/10/26 04:37:21;;;;;;;1.25;0.70;;;11.90;99.90;;;;;;5031762;28;20461;-46
2023/10/26 04:39:47;;;;;;;1.55;0.70;;;11.90;99.90;;;;;;5031672;28;20045;-47
2023/10/26 04:42:13;;;;;;;1.88;1.13;;;11.90;99.90;;;;;;5030789;28;20029;-51
2023/10/26 04:44:41;;;;;;;2.28;0.95;;;11.90;99.90;;;;;;5031841;28;20029;-55
2023/10/26 04:47:07;;;;;;;3.00;0.85;;;11.90;99.90;;;;;;5027462;28;20057;-48
2023/10/26 04:49:36;;;;;;;4.15;0.75;;;11.90;99.90;;;;;;5031208;28;20072;-46
2023/10/26 04:52:01;;;;;;;1.47;0.70;;;11.90;99.90;;;;;;5026931;28;20053;-46
2023/10/26 04:54:27;;;;;;;1.08;0.70;;;11.90;99.90;;;;;;5026474;28;20065;-47
2023/10/26 04:56:53;;;;;;;1.45;0.80;;;11.90;99.90;;;;;;5011819;28;20468;-46
2023/10/26 04:59:19;;;;;;;2.10;0.77;;;11.90;99.90;;;;;;5028315;28;20084;-45
2023/10/26 05:01:45;;;;;;;0.82;0.60;;;11.90;99.90;;;;;;5029721;28;20502;-46
2023/10/26 05:04:10;;;;;;;0.70;0.55;;;11.90;99.90;;;;;;5029555;28;20033;-50
2023/10/26 05:06:36;;;;;;;6.50;0.73;;;11.90;99.90;;;;;;5028323;28;20092;-50
2023/10/26 05:09:03;;;;;;;1.70;0.60;;;11.90;99.90;;;;;;5029925;28;20029;-46
2023/10/26 05:11:29;;;;;;;0.47;0.47;;;11.90;99.90;;;;;;5030030;28;20018;-46
2023/10/26 05:13:55;;;;;;;3.28;0.50;;;11.90;99.90;;;;;;5031360;28;20025;-48
2023/10/26 05:16:20;;;;;;;6.13;0.93;;;11.80;99.90;;;;;;5031686;28;20026;-53
2023/10/26 05:18:46;;;;;;;0.70;0.65;;;11.80;99.90;;;;;;5031494;28;20076;-55
2023/10/26 05:21:12;;;;;;;1.42;0.77;;;11.80;99.90;;;;;;5029864;28;20025;-51
2023/10/26 05:23:39;;;;;;;0.50;0.50;;;11.80;99.90;;;;;;5030848;28;20028;-48
2023/10/26 05:26:05;;;;;;;1.17;0.60;;;11.70;99.90;;;;;;5031630;28;20028;-46
2023/10/26 05:28:30;;;;;;;2.50;0.70;;;11.70;99.90;;;;;;5031500;28;20026;-55
2023/10/26 05:30:56;;;;;;;1.05;0.50;;;11.70;99.90;;;;;;5031399;28;20065;-51
2023/10/26 05:33:22;;;;;;;3.65;0.80;;;11.70;99.90;;;;;;5031360;28;20018;-46
2023/10/26 05:35:47;;;;;;;2.45;1.13;;;11.70;99.90;;;;;;5031673;28;20109;-47
2023/10/26 05:38:16;;;;;;;2.03;0.60;;;11.70;99.90;;;;;;5031171;28;20064;-47
2023/10/26 05:40:49;;;;;;;3.05;0.70;;;11.70;99.90;;;;;;5013565;28;20392;-49
2023/10/26 05:43:14;;;;;;;0.85;0.60;;;11.80;99.90;;;;;;5031102;28;20029;-50
2023/10/26 05:45:40;;;;;;;1.40;0.63;;;11.80;99.90;;;;;;5031227;28;20391;-48
2023/10/26 05:48:08;;;;;;;2.40;1.00;;;11.70;99.90;;;;;;5031097;28;20025;-47
2023/10/26 05:50:34;;;;;;;1.48;0.80;;;11.80;99.90;;;;;;5031086;28;20423;-50
2023/10/26 05:52:59;;;;;;;5.53;1.13;;;11.80;99.90;;;;;;5030974;28;20472;-47
2023/10/26 05:55:25;;;;;;;1.38;0.70;;;11.70;99.90;;;;;;5030831;28;20024;-48
2023/10/26 05:57:50;;;;;;;7.75;1.90;;;11.70;99.90;;;;;;5030809;28;20036;-50
2023/10/26 06:00:16;;;;;;;2.67;1.27;;;11.70;99.90;;;;;;5031118;28;20492;-50
2023/10/26 06:02:42;;;;;;;1.10;0.50;;;11.60;99.90;;;;;;5030963;28;20033;-51
2023/10/26 06:05:08;;;;;;;2.75;0.95;;;11.60;99.90;;;;;;5030902;28;20022;-52
2023/10/26 06:07:33;;;;;;;1.83;0.75;;;11.60;99.90;;;;;;5030923;28;20037;-47
2023/10/26 06:09:59;;;;;;;2.03;0.73;;;11.50;99.90;;;;;;5031055;28;20022;-55
2023/10/26 06:12:25;;;;;;;1.25;0.68;;;11.50;99.90;;;;;;5030760;28;20033;-48
2023/10/26 06:14:50;;;;;;;1.23;0.73;;;11.50;99.90;;;;;;5030861;28;20026;-47
2023/10/26 06:17:16;;;;;;;2.78;0.70;;;11.40;99.90;;;;;;5030700;28;20064;-48
2023/10/26 06:19:41;;;;;;;1.15;0.70;;;11.40;99.90;;;;;;5030941;28;20113;-49
2023/10/26 06:22:07;;;;;;;1.85;0.70;;;11.40;99.90;;;;;;5030677;28;20022;-57
2023/10/26 06:24:32;;;;;;;4.90;1.35;;;11.40;99.90;;;;;;5030761;28;20022;-56
2023/10/26 06:26:58;;;;;;;0.73;0.63;;;11.40;99.90;;;;;;5030682;28;20465;-47
2023/10/26 06:29:24;;;;;;;1.55;0.70;;;11.40;99.90;;;;;;5030440;28;20038;-46
2023/10/26 06:31:49;;;;;;;2.40;0.80;;;11.40;99.90;;;;;;5030599;28;20029;-50
2023/10/26 06:34:15;;;;;;;1.77;0.70;;;11.40;99.90;;;;;;5030599;28;20022;-47
2023/10/26 06:36:40;;;;;;;0.55;0.55;;;11.40;99.90;;;;;;5030498;28;20037;-51
2023/10/26 06:39:06;;;;;;;1.60;1.00;;;11.40;99.90;;;;;;5030640;28;20061;-46
2023/10/26 06:41:32;;;;;;;4.72;1.00;;;11.50;99.90;;;;;;5030490;28;20365;-50
2023/10/26 06:43:57;;;;;;;2.40;0.65;;;11.50;99.90;;;;;;5030538;28;20112;-50
2023/10/26 06:46:23;;;;;;;1.70;0.90;;;11.40;99.90;;;;;;5030305;28;20033;-48
2023/10/26 06:48:49;;;;;;;1.30;0.70;;;11.40;99.90;;;;;;5030468;28;20021;-47
2023/10/26 06:51:15;;;;;;;2.45;0.98;;;11.40;99.90;;;;;;5030419;28;20040;-57
2023/10/26 06:53:40;;;;;;;1.25;0.70;;;11.40;99.90;;;;;;5030316;28;20029;-56
2023/10/26 06:56:12;;;;;;;1.77;0.82;;;11.40;99.90;;;;;;5030289;28;20025;-56
2023/10/26 06:58:43;;;;;;;1.48;0.90;;;11.50;99.90;;;;;;5029856;28;20046;-54
2023/10/26 07:01:09;;;;;;;1.05;0.80;;;11.50;99.90;;;;;;5030143;28;20116;-46
2023/10/26 07:03:34;;;;;;;0.88;0.70;;;11.50;99.90;;;;;;5030084;28;20079;-55
2023/10/26 07:06:02;;;;;;;2.28;0.80;;;11.50;99.90;;;;;;5031270;28;20506;-54
2023/10/26 07:08:28;;;;;;;1.23;0.70;;;11.50;99.90;;;;;;5033990;28;20108;-53
2023/10/26 07:10:54;;;;;;;2.42;0.70;;;11.50;99.90;;;;;;5033838;28;20030;-50
2023/10/26 07:13:20;;;;;;;0.70;0.52;;;11.50;99.90;;;;;;5034015;28;20033;-47
2023/10/26 07:15:47;;;;;;;2.78;0.60;;;11.50;99.90;;;;;;5033686;28;20036;-48
2023/10/26 07:18:15;;;;;;;1.60;0.77;;;11.50;99.90;;;;;;5034048;28;20072;-50
2023/10/26 07:20:40;;;;;;;1.02;0.60;;;11.50;99.90;;;;;;5033827;28;20021;-56
2023/10/26 07:23:06;;;;;;;5.15;0.70;;;11.60;99.90;;;;;;5033726;28;20056;-47
2023/10/26 07:25:35;;;;;;;2.50;0.73;;;11.60;99.90;;;;;;5033711;28;20060;-50
2023/10/26 07:28:02;;;;;;;2.80;0.70;;;11.70;99.90;;;;;;5034050;28;20080;-48
2023/10/26 07:30:27;;;;;;;2.47;0.70;;;11.80;99.90;;;;;;5033574;28;20026;-57
2023/10/26 07:32:53;;;;;;;3.97;0.77;;;11.80;99.90;;;;;;5033491;28;20033;-48
2023/10/26 07:35:18;;;;;;;1.25;0.60;;;11.90;99.90;;;;;;5033757;28;20029;-52
2023/10/26 07:37:44;;;;;;;2.22;0.73;;;11.90;99.90;;;;;;5033357;28;20037;-53
2023/10/26 07:40:10;;;;;;;1.98;0.80;;;11.90;99.90;;;;;;5028255;28;20026;-54
2023/10/26 07:42:36;;;;;;;5.50;0.85;;;12.00;99.90;;;;;;5033408;28;20029;-56
2023/10/26 07:45:01;;;;;;;1.40;0.75;;;12.10;99.90;;;;;;5033473;28;20137;-50
2023/10/26 07:47:27;;;;;;;2.03;0.60;;;12.10;99.90;;;;;;5033403;28;21472;-48
2023/10/26 07:49:53;;;;;;;2.92;0.73;;;12.10;99.90;;;;;;5033206;28;20026;-49
2023/10/26 07:52:18;;;;;;;7.55;1.25;;;12.10;99.90;;;;;;5033255;28;20017;-46
2023/10/26 07:54:44;;;;;;;3.78;0.70;;;12.20;99.90;;;;;;5033367;28;20430;-54
2023/10/26 07:57:10;;;;;;;3.22;0.55;;;12.30;99.90;;;;;;5033004;28;20036;-54
2023/10/26 07:59:35;;;;;;;2.55;0.55;;;12.40;99.90;;;;;;5032869;28;20068;-52
2023/10/26 08:02:01;;;;;;;3.47;0.70;;;12.40;99.90;;;;;;5032068;28;20029;-47
2023/10/26 08:04:29;;;;;;;3.85;0.70;;;12.50;99.90;;;;;;5032785;28;20021;-52
2023/10/26 08:06:55;;;;;;;8.73;1.13;;;12.50;99.90;;;;;;5030777;28;20053;-51
2023/10/26 08:09:21;;;;;;;0.98;0.52;;;12.60;99.90;;;;;;5024890;28;20021;-52
2023/10/26 08:11:46;;;;;;;5.40;0.82;;;12.70;99.90;;;;;;5032960;28;20026;-52
2023/10/26 08:14:12;;;;;;;6.75;0.75;;;12.70;99.90;;;;;;5032710;28;20441;-53
2023/10/26 08:16:39;;;;;;;4.88;0.73;;;12.80;99.90;;;;;;5032532;28;20030;-57
2023/10/26 08:19:05;;;;;;;2.35;1.10;;;12.90;99.90;;;;;;5032557;28;20029;-51
2023/10/26 08:21:30;;;;;;;3.65;0.75;;;12.90;99.90;;;;;;5032534;28;20090;-49
2023/10/26 08:23:56;;;;;;;2.25;0.88;;;12.90;99.90;;;;;;5032593;28;20514;-48
2023/10/26 08:26:21;;;;;;;6.35;1.27;;;13.00;99.90;;;;;;5032511;28;20017;-56
2023/10/26 08:28:47;;;;;;;1.55;0.70;;;13.00;99.90;;;;;;5032457;28;20032;-53
2023/10/26 08:31:13;;;;;;;6.63;1.15;;;13.10;99.90;;;;;;5031954;28;20024;-60
2023/10/26 08:33:39;;;;;;;3.10;0.95;;;13.10;99.90;;;;;;5031503;28;20033;-52
2023/10/26 08:36:05;;;;;;;5.25;1.30;;;13.20;99.90;;;;;;5031287;28;20028;-54
2023/10/26 08:38:32;;;;;;;5.20;1.98;;;13.20;99.90;;;;;;5032343;28;20064;-48
2023/10/26 08:40:58;;;;;;;1.63;1.25;;;13.20;99.90;;;;;;5032350;28;20101;-56
2023/10/26 08:43:24;;;;;;;1.60;1.00;;;13.20;99.90;;;;;;5032223;28;20024;-53
2023/10/26 08:45:52;;;;;;;3.97;1.15;;;13.40;99.90;;;;;;5032225;28;20021;-58
2023/10/26 08:48:19;;;;;;;4.15;1.52;;;13.70;99.90;;;;;;5032244;28;20101;-52
2023/10/26 08:50:46;;;;;;;1.88;0.77;;;13.80;99.90;;;;;;5032078;28;20026;-55
2023/10/26 08:53:12;;;;;;;2.15;0.90;;;13.80;99.90;;;;;;5031803;28;20032;-46
2023/10/26 08:55:39;;;;;;;2.70;0.85;;;13.90;99.90;;;;;;5031905;28;20061;-48
2023/10/26 08:58:05;;;;;;;1.30;0.80;;;13.90;99.90;;;;;;5024878;28;20034;-46
2023/10/26 09:00:32;;;;;;;2.25;0.93;;;13.90;99.90;;;;;;5031550;28;20044;-46
2023/10/26 09:02:57;;;;;;;3.13;0.70;;;13.80;99.90;;;;;;5031853;28;20064;-53
2023/10/26 09:05:23;;;;;;;2.95;0.77;;;13.70;99.90;;;;;;5031668;28;20056;-55
2023/10/26 09:07:51;;;;;;;3.05;0.63;;;13.70;99.90;;;;;;5031872;28;20033;-56
2023/10/26 09:10:31;;;;;;;3.35;1.15;;;13.70;99.90;;;;;;5032022;28;20095;-55
2023/10/26 09:13:03;;;;;;;5.90;0.90;;;13.60;99.90;;;;;;5031797;28;20120;-60
2023/10/26 09:15:29;;;;;;;1.30;0.55;;;13.50;99.90;;;;;;5031659;28;20472;-58
2023/10/26 09:17:57;;;;;;;4.03;1.05;;;13.50;99.90;;;;;;5031351;28;20029;-62
2023/10/26 09:20:24;;;;;;;8.48;1.10;;;13.50;99.90;;;;;;5031723;28;20373;-55
2023/10/26 09:22:49;;;;;;;6.72;1.13;;;13.50;99.90;;;;;;5031618;28;20022;-53
2023/10/26 09:25:15;;;;;;;4.85;1.13;;;13.50;99.90;;;;;;5031681;28;20025;-59
2023/10/26 09:27:42;;;;;;;7.15;1.33;;;13.50;99.90;;;;;;5031563;28;20086;-59
2023/10/26 09:30:28;;;;;;;5.18;1.10;;;13.60;99.90;;;;;;5030697;28;20013;-53
2023/10/26 09:32:55;;;;;;;8.60;1.25;;;13.80;99.90;;;;;;5013921;28;20392;-56
2023/10/26 09:35:27;;;;;;;3.55;1.48;;;14.00;99.90;;;;;;5031614;28;20031;-57
2023/10/26 09:37:53;;;;;;;5.57;1.15;;;14.20;99.90;;;;;;5031335;28;20041;-50
2023/10/26 09:40:22;;;;;;;3.63;1.17;;;14.20;99.90;;;;;;5031527;28;20044;-55
2023/10/26 09:42:48;;;;;;;8.38;1.17;;;14.30;99.90;;;;;;5031277;28;20022;-48
2023/10/26 09:45:16;;;;;;;6.65;1.27;;;14.30;99.90;;;;;;5031366;28;20022;-49
2023/10/26 09:47:41;;;;;;;8.52;1.75;;;14.20;99.90;;;;;;5030884;28;20074;-52
2023/10/26 09:50:08;;;;;;;8.02;1.50;;;14.30;99.90;;;;;;5029282;28;20120;-54
2023/10/26 09:52:34;;;;;;;5.80;1.15;;;14.40;99.90;;;;;;5029355;28;20329;-48
2023/10/26 09:55:01;;;;;;;3.75;0.95;;;14.40;99.90;;;;;;5030847;28;20473;-53
2023/10/26 09:57:35;;;;;;;8.60;1.35;;;14.50;99.90;;;;;;5030884;28;20104;-56
2023/10/26 10:00:06;;;;;;;4.63;1.33;;;14.40;99.90;;;;;;5030464;28;20057;-50
2023/10/26 10:02:32;;;;;;;5.80;1.33;;;14.50;99.90;;;;;;5031016;28;20104;-51
2023/10/26 10:04:57;;;;;;;2.70;0.82;;;14.60;99.90;;;;;;5030949;28;20544;-51
2023/10/26 10:07:43;;;;;;;9.18;1.38;;;14.90;99.90;;;;;;5030844;28;20058;-58
2023/10/26 10:10:13;;;;;;;4.90;1.33;;;15.30;99.90;;;;;;5030586;28;20053;-49
2023/10/26 10:12:40;;;;;;;4.25;1.00;;;16.20;99.90;;;;;;5030959;28;20040;-49
2023/10/26 10:15:09;;;;;;;8.90;1.05;;;17.30;99.90;;;;;;5030969;28;20029;-56
2023/10/26 10:17:44;;;;;;;9.45;1.63;;;17.90;99.90;;;;;;5030504;28;20562;-54
2023/10/26 10:20:18;;;;;;;4.65;1.25;;;18.40;99.90;;;;;;5030634;28;20071;-57
2023/10/26 10:22:44;;;;;;;9.77;1.15;;;19.60;99.90;;;;;;5030724;28;20028;-58
2023/10/26 10:25:10;;;;;;;7.15;0.95;;;19.80;99.90;;;;;;5030914;28;20460;-49
2023/10/26 10:27:40;;;;;;;6.88;1.20;;;20.50;99.90;;;;;;5030538;28;20110;-50
2023/10/26 10:30:11;;;;;;;3.25;0.82;;;20.50;99.90;;;;;;5030360;28;20568;-54
2023/10/26 10:32:43;;;;;;;12.13;1.63;;;21.40;99.90;;;;;;5030328;28;20049;-55
2023/10/26 10:35:32;;;;;;;6.63;1.52;;;22.30;99.90;;;;;;5030269;28;20483;-48
2023/10/26 10:38:13;;;;;;;;;;;23.40;99.90;;;;;;5029448;28;20404;-53
2023/10/26 10:40:40;;;;;;;11.15;2.03;;;24.40;99.90;;;;;;5030540;28;20000;-54
2023/10/26 10:43:06;;;;;;;4.95;0.85;;;24.30;99.90;;;;;;5034649;28;20380;-57
2023/10/26 10:45:32;;;;;;;8.80;1.00;;;23.30;99.90;;;;;;5034688;28;20028;-49
2023/10/26 10:47:57;;;;;;;9.15;1.27;;;23.80;99.90;;;;;;5033101;28;20388;-48
2023/10/26 10:50:25;;;;;;;4.03;1.50;;;24.10;99.90;;;;;;5033463;28;20040;-50
2023/10/26 10:52:55;;;;;;;4.75;1.38;;;24.20;99.90;;;;;;5033807;28;20022;-49
2023/10/26 10:55:30;;;;;;;3.13;0.60;;;23.90;99.90;;;;;;5033987;28;20041;-49
2023/10/26 10:58:03;;;;;;;5.10;1.45;;;24.10;99.90;;;;;;5023459;28;20069;-58
2023/10/26 11:00:45;;;;;;;5.55;1.40;;;24.30;99.90;;;;;;5034209;28;20029;-48
2023/10/26 11:03:20;;;;;;;2.95;0.80;;;24.80;99.90;;;;;;5034227;28;20021;-48
2023/10/26 11:05:47;;;;;;;5.93;1.10;;;25.20;99.90;;;;;;5030174;28;20040;-57
2023/10/26 11:08:12;;;;;;;3.20;0.95;;;25.40;99.90;;;;;;5033013;28;20472;-52
2023/10/26 11:10:38;;;;;;;4.72;0.90;;;25.50;99.90;;;;;;5032710;28;20099;-54
2023/10/26 11:13:04;;;;;;;5.22;1.33;;;25.20;99.90;;;;;;5020573;28;20024;-49
2023/10/26 11:15:37;;;;;;;3.28;0.85;;;25.00;99.90;;;;;;5016683;28;20033;-48
2023/10/26 11:18:05;;;;;;;8.15;1.58;;;24.80;99.90;;;;;;5026054;28;20047;-47
2023/10/26 11:20:42;;;;;;;7.40;1.20;;;23.50;99.90;;;;;;5033878;28;20055;-52
2023/10/26 11:23:09;;;;;;;3.85;1.05;;;22.80;99.90;;;;;;5033426;28;20026;-49
2023/10/26 11:25:34;;;;;;;6.28;0.90;;;23.40;99.90;;;;;;5033946;28;20025;-54
2023/10/26 11:28:00;;;;;;;5.47;0.98;;;24.00;99.90;;;;;;5033553;28;20064;-47
2023/10/26 11:30:26;;;;;;;3.60;0.82;;;23.60;99.90;;;;;;5033665;28;20022;-52
2023/10/26 11:32:52;;;;;;;8.35;1.33;;;24.20;99.90;;;;;;5032122;28;20033;-55
2023/10/26 11:35:17;;;;;;;8.02;1.02;;;24.10;99.90;;;;;;5026993;28;20014;-51
2023/10/26 11:37:48;;;;;;;5.85;0.88;;;24.20;99.90;;;;;;5033351;28;20069;-47
2023/10/26 11:40:15;;;;;;;5.28;1.02;;;23.20;99.90;;;;;;5033441;28;20891;-53
2023/10/26 11:42:51;;;;;;;9.35;1.42;;;22.20;99.90;;;;;;5033264;28;20029;-52
2023/10/26 11:45:19;;;;;;;5.63;1.23;;;21.40;99.90;;;;;;5032787;28;20064;-60
2023/10/26 11:47:51;;;;;;;5.47;1.30;;;21.00;99.90;;;;;;5033219;28;20037;-54
2023/10/26 11:50:24;;;;;;;7.93;1.08;;;20.30;99.90;;;;;;5033287;28;20085;-52
2023/10/26 11:52:52;;;;;;;4.35;1.40;;;19.90;99.90;;;;;;5022433;28;20029;-54
2023/10/26 11:55:19;;;;;;;7.15;1.17;;;19.80;99.90;;;;;;5033164;28;20044;-59
2023/10/26 11:57:45;;;;;;;6.10;1.13;;;19.70;99.90;;;;;;5033004;28;20627;-56
2023/10/26 12:00:12;;;;;;;6.82;1.33;;;19.80;99.90;;;;;;5032950;28;20054;-56
2023/10/26 12:02:38;;;;;;;5.90;1.52;;;19.60;99.90;;;;;;5033068;28;20032;-58
2023/10/26 12:05:05;;;;;;;8.32;1.50;;;19.80;99.90;;;;;;5033072;28;20024;-54
2023/10/26 12:07:31;;;;;;;6.90;0.98;;;20.30;99.90;;;;;;5032752;28;20387;-58
2023/10/26 12:09:56;;;;;;;7.65;1.33;;;20.20;99.90;;;;;;5033035;28;20060;-57
2023/10/26 12:12:22;;;;;;;4.10;1.20;;;19.90;99.90;;;;;;5032802;28;20045;-59
2023/10/26 12:14:48;;;;;;;14.60;1.73;;;19.60;99.90;;;;;;5032021;28;20026;-58
2023/10/26 12:17:13;;;;;;;7.15;1.30;;;19.00;99.90;;;;;;5031214;28;20033;-54
2023/10/26 12:19:39;;;;;;;5.43;1.48;;;18.80;99.90;;;;;;5032928;28;20048;-54
2023/10/26 12:22:05;;;;;;;4.88;1.23;;;18.40;99.90;;;;;;5032715;28;20048;-52
2023/10/26 12:24:30;;;;;;;5.25;0.90;;;18.20;99.90;;;;;;5032397;28;20013;-58
2023/10/26 12:26:56;;;;;;;4.50;0.95;;;18.00;99.90;;;;;;5032018;28;20022;-56
2023/10/26 12:29:22;;;;;;;7.57;1.27;;;17.80;99.90;;;;;;5032399;28;20021;-55
2023/10/26 12:31:48;;;;;;;6.82;1.55;;;17.90;99.90;;;;;;5032820;28;20495;-51
2023/10/26 12:34:13;;;;;;;9.20;1.45;;;17.90;99.90;;;;;;5032621;28;20040;-60
2023/10/26 12:36:39;;;;;;;7.57;1.17;;;18.10;99.90;;;;;;5032527;28;20080;-60
2023/10/26 12:39:05;;;;;;;7.70;1.20;;;18.20;99.90;;;;;;5032294;28;20075;-59
2023/10/26 12:41:30;;;;;;;7.28;1.48;;;18.40;99.90;;;;;;5030413;28;20113;-58
2023/10/26 12:43:56;;;;;;;5.82;1.35;;;18.40;99.90;;;;;;5031373;28;20052;-58
2023/10/26 12:46:22;;;;;;;8.65;1.42;;;18.30;99.90;;;;;;5031301;28;20714;-59